• Join FlightAware (Why Join?)
  • Login
  • US Flag 
11:15AM EDT


 

Airport Tracker/Info


-or-


 

Live Flight TrackerFlight Track Log ✈ SLI2469 ✈ 18-Apr-2012 ✈ MMMY / MTY - MMGL / GDL

Flight Track Log - Related Links

Times and Time Zones

All times are in EDT time to prevent confusion due to time zone crossing. See the SLI2469 flight status page for this flight to view local times or setup timezone preferences in your user account.

Time Position Orientation Groundspeed Altitude Reporting Facility
EDT Latitude Longitude Course Direction KTS MPH feet Rate Location/Type
07:33PM 25.4973 -100.2861 210° Southwest  Level Estimated
07:34PM 25.4311 -100.3281 210° Southwest  Level Estimated
07:35PM 25.3648 -100.3701 210° Southwest  Level Estimated
07:36PM 25.2986 -100.4121 210° Southwest  Level Estimated
07:37PM 25.2324 -100.4540 210° Southwest  Level Estimated
07:38PM 25.1661 -100.4958 210° Southwest  Level Estimated
07:39PM 25.0999 -100.5377 210° Southwest  Level Estimated
07:40PM 25.0336 -100.5794 210° Southwest  Level Estimated
07:41PM 24.9673 -100.6211 210° Southwest  Level Estimated
07:42PM 24.9010 -100.6628 210° Southwest  Level Estimated
07:43PM 24.8347 -100.7045 210° Southwest  Level Estimated
07:44PM 24.7684 -100.7460 210° Southwest  Level Estimated
07:45PM 24.7020 -100.7876 210° Southwest  Level Estimated
07:46PM 24.6357 -100.8291 210° Southwest  Level Estimated
07:47PM 24.5693 -100.8705 210° Southwest  Level Estimated
07:48PM 24.5030 -100.9119 210° Southwest  Level Estimated
07:49PM 24.4366 -100.9533 210° Southwest  Level Estimated
07:50PM 24.3702 -100.9947 210° Southwest  Level Estimated
07:51PM 24.3038 -101.0359 210° Southwest  Level Estimated
07:52PM 24.2374 -101.0772 210° Southwest  Level Estimated
07:53PM 24.1710 -101.1184 209° Southwest  Level Estimated
07:54PM 24.1045 -101.1595 209° Southwest  Level Estimated
07:55PM 24.0381 -101.2006 209° Southwest  Level Estimated
07:56PM 23.9716 -101.2417 209° Southwest  Level Estimated
07:57PM 23.9052 -101.2827 209° Southwest  Level Estimated
07:58PM 23.8387 -101.3237 209° Southwest  Level Estimated
07:59PM 23.7722 -101.3646 209° Southwest  Level Estimated
08:00PM 23.7057 -101.4055 209° Southwest  Level Estimated
08:01PM 23.6392 -101.4464 209° Southwest  Level Estimated
08:02PM 23.5727 -101.4872 209° Southwest  Level Estimated
08:03PM 23.5061 -101.5280 209° Southwest  Level Estimated
08:04PM 23.4396 -101.5687 209° Southwest  Level Estimated
08:05PM 23.3730 -101.6094 209° Southwest  Level Estimated
08:06PM 23.3065 -101.6501 209° Southwest  Level Estimated
08:07PM 23.2399 -101.6907 209° Southwest  Level Estimated
08:08PM 23.1733 -101.7313 209° Southwest  Level Estimated
08:09PM 23.1067 -101.7718 209° Southwest  Level Estimated
08:10PM 23.0401 -101.8123 209° Southwest  Level Estimated
08:11PM 22.9735 -101.8528 209° Southwest  Level Estimated
08:12PM 22.9069 -101.8932 209° Southwest  Level Estimated
08:13PM 22.8403 -101.9335 209° Southwest  Level Estimated
08:14PM 22.7736 -101.9739 209° Southwest  Level Estimated
08:15PM 22.7069 -102.0142 209° Southwest  Level Estimated
08:16PM 22.6403 -102.0544 209° Southwest  Level Estimated
08:17PM 22.5736 -102.0946 209° Southwest  Level Estimated
08:18PM 22.5069 -102.1348 209° Southwest  Level Estimated
08:19PM 22.4402 -102.1749 209° Southwest  Level Estimated
08:20PM 22.3735 -102.2150 209° Southwest  Level Estimated
08:21PM 22.3068 -102.2551 209° Southwest  Level Estimated
08:22PM 22.2401 -102.2951 209° Southwest  Level Estimated
08:23PM 22.1733 -102.3351 209° Southwest  Level Estimated
08:24PM 22.1066 -102.3750 209° Southwest  Level Estimated
08:25PM 22.0398 -102.4149 209° Southwest  Level Estimated
08:26PM 21.9731 -102.4548 209° Southwest  Level Estimated
08:27PM 21.9063 -102.4947 209° Southwest  Level Estimated
08:28PM 21.8395 -102.5344 209° Southwest  Level Estimated
08:29PM 21.7727 -102.5742 209° Southwest  Level Estimated
08:30PM 21.7059 -102.6139 209° Southwest  Level Estimated
08:31PM 21.6391 -102.6536 209° Southwest  Level Estimated
08:32PM 21.5723 -102.6933 209° Southwest  Level Estimated
08:33PM 21.5055 -102.7329 209° Southwest  Level Estimated
08:34PM 21.4386 -102.7725 209° Southwest  Level Estimated
08:35PM 21.3718 -102.8120 209° Southwest  Level Estimated
08:36PM 21.3049 -102.8515 209° Southwest  Level Estimated
08:37PM 21.2381 -102.8910 209° Southwest  Level Estimated
08:38PM 21.1712 -102.9304 209° Southwest  Level Estimated
08:39PM 21.1043 -102.9698 209° Southwest  Level Estimated
08:40PM 21.0374 -103.0091 209° Southwest  Level Estimated